sensor_id;sensor_type;location;lat;lon;timestamp;P1;durP1;ratioP1;P2;durP2;ratioP2
52458;SDS011;38372;52.902;6.024;2023-05-01T00:01:20;2.03;;;0.80;;
52458;SDS011;38372;52.902;6.024;2023-05-01T00:03:46;1.42;;;1.15;;
52458;SDS011;38372;52.902;6.024;2023-05-01T00:06:12;0.98;;;0.52;;
52458;SDS011;38372;52.902;6.024;2023-05-01T00:08:38;4.13;;;0.80;;
52458;SDS011;38372;52.902;6.024;2023-05-01T00:11:04;0.60;;;0.45;;
52458;SDS011;38372;52.902;6.024;2023-05-01T00:13:33;1.75;;;0.95;;
52458;SDS011;38372;52.902;6.024;2023-05-01T00:15:59;0.70;;;0.57;;
52458;SDS011;38372;52.902;6.024;2023-05-01T00:18:25;2.35;;;0.68;;
52458;SDS011;38372;52.902;6.024;2023-05-01T00:20:51;1.20;;;0.65;;
52458;SDS011;38372;52.902;6.024;2023-05-01T00:23:16;2.50;;;1.13;;
52458;SDS011;38372;52.902;6.024;2023-05-01T00:25:42;1.77;;;0.88;;
52458;SDS011;38372;52.902;6.024;2023-05-01T00:28:08;1.83;;;0.57;;
52458;SDS011;38372;52.902;6.024;2023-05-01T00:30:34;1.52;;;0.57;;
52458;SDS011;38372;52.902;6.024;2023-05-01T00:32:59;1.60;;;0.75;;
52458;SDS011;38372;52.902;6.024;2023-05-01T00:35:26;0.93;;;0.50;;
52458;SDS011;38372;52.902;6.024;2023-05-01T00:37:53;0.95;;;0.57;;
52458;SDS011;38372;52.902;6.024;2023-05-01T00:40:18;2.55;;;0.82;;
52458;SDS011;38372;52.902;6.024;2023-05-01T00:42:45;0.85;;;0.60;;
52458;SDS011;38372;52.902;6.024;2023-05-01T00:45:10;1.77;;;0.88;;
52458;SDS011;38372;52.902;6.024;2023-05-01T00:47:36;1.33;;;0.70;;
52458;SDS011;38372;52.902;6.024;2023-05-01T00:50:03;0.77;;;0.50;;
52458;SDS011;38372;52.902;6.024;2023-05-01T00:52:30;1.95;;;0.95;;
52458;SDS011;38372;52.902;6.024;2023-05-01T00:54:56;1.50;;;0.85;;
52458;SDS011;38372;52.902;6.024;2023-05-01T00:57:22;2.47;;;0.80;;
52458;SDS011;38372;52.902;6.024;2023-05-01T00:59:48;1.05;;;0.75;;
52458;SDS011;38372;52.902;6.024;2023-05-01T01:02:14;1.02;;;0.47;;
52458;SDS011;38372;52.902;6.024;2023-05-01T01:04:44;1.55;;;0.90;;
52458;SDS011;38372;52.902;6.024;2023-05-01T01:10:18;1.42;;;0.82;;
52458;SDS011;38372;52.902;6.024;2023-05-01T01:32:13;1.75;;;0.88;;
52458;SDS011;38372;52.902;6.024;2023-05-01T01:35:04;1.45;;;0.75;;
52458;SDS011;38372;52.902;6.024;2023-05-01T01:42:39;2.50;;;0.88;;
52458;SDS011;38372;52.902;6.024;2023-05-01T01:45:24;0.93;;;0.65;;
52458;SDS011;38372;52.902;6.024;2023-05-01T01:47:57;1.23;;;0.63;;
52458;SDS011;38372;52.902;6.024;2023-05-01T01:50:24;0.93;;;0.68;;
52458;SDS011;38372;52.902;6.024;2023-05-01T01:52:52;3.33;;;0.80;;
52458;SDS011;38372;52.902;6.024;2023-05-01T01:55:24;1.92;;;0.57;;
52458;SDS011;38372;52.902;6.024;2023-05-01T01:57:52;4.32;;;1.30;;
52458;SDS011;38372;52.902;6.024;2023-05-01T02:00:18;1.75;;;0.98;;
52458;SDS011;38372;52.902;6.024;2023-05-01T02:02:45;1.02;;;0.60;;
52458;SDS011;38372;52.902;6.024;2023-05-01T02:05:13;2.60;;;1.10;;
52458;SDS011;38372;52.902;6.024;2023-05-01T02:07:42;2.85;;;1.10;;
52458;SDS011;38372;52.902;6.024;2023-05-01T02:10:11;1.75;;;0.70;;
52458;SDS011;38372;52.902;6.024;2023-05-01T02:12:39;1.13;;;0.70;;
52458;SDS011;38372;52.902;6.024;2023-05-01T02:15:07;1.25;;;0.95;;
52458;SDS011;38372;52.902;6.024;2023-05-01T02:17:35;2.28;;;1.25;;
52458;SDS011;38372;52.902;6.024;2023-05-01T02:20:02;2.05;;;0.95;;
52458;SDS011;38372;52.902;6.024;2023-05-01T02:22:30;2.63;;;1.10;;
52458;SDS011;38372;52.902;6.024;2023-05-01T02:24:57;1.70;;;0.75;;
52458;SDS011;38372;52.902;6.024;2023-05-01T02:27:32;4.22;;;0.90;;
52458;SDS011;38372;52.902;6.024;2023-05-01T02:30:00;1.10;;;0.90;;
52458;SDS011;38372;52.902;6.024;2023-05-01T02:32:26;8.07;;;1.15;;
52458;SDS011;38372;52.902;6.024;2023-05-01T02:34:52;1.15;;;0.63;;
52458;SDS011;38372;52.902;6.024;2023-05-01T02:37:18;2.60;;;0.85;;
52458;SDS011;38372;52.902;6.024;2023-05-01T02:39:45;2.30;;;0.93;;
52458;SDS011;38372;52.902;6.024;2023-05-01T02:42:10;3.38;;;1.33;;
52458;SDS011;38372;52.902;6.024;2023-05-01T02:44:47;1.17;;;0.80;;
52458;SDS011;38372;52.902;6.024;2023-05-01T02:47:21;3.05;;;0.65;;
52458;SDS011;38372;52.902;6.024;2023-05-01T02:49:48;1.48;;;0.80;;
52458;SDS011;38372;52.902;6.024;2023-05-01T02:52:16;1.92;;;0.85;;
52458;SDS011;38372;52.902;6.024;2023-05-01T02:54:44;1.50;;;0.68;;
52458;SDS011;38372;52.902;6.024;2023-05-01T02:57:10;1.30;;;0.70;;
52458;SDS011;38372;52.902;6.024;2023-05-01T02:59:36;0.98;;;0.65;;
52458;SDS011;38372;52.902;6.024;2023-05-01T03:02:02;1.40;;;0.98;;
52458;SDS011;38372;52.902;6.024;2023-05-01T03:04:28;2.38;;;0.98;;
52458;SDS011;38372;52.902;6.024;2023-05-01T03:06:54;1.73;;;0.85;;
52458;SDS011;38372;52.902;6.024;2023-05-01T03:09:21;2.03;;;0.93;;
52458;SDS011;38372;52.902;6.024;2023-05-01T03:11:47;2.45;;;1.02;;
52458;SDS011;38372;52.902;6.024;2023-05-01T03:14:13;1.70;;;0.82;;
52458;SDS011;38372;52.902;6.024;2023-05-01T03:16:38;1.63;;;0.98;;
52458;SDS011;38372;52.902;6.024;2023-05-01T03:19:05;3.83;;;0.60;;
52458;SDS011;38372;52.902;6.024;2023-05-01T03:21:31;3.65;;;0.85;;
52458;SDS011;38372;52.902;6.024;2023-05-01T03:23:57;4.70;;;1.05;;
52458;SDS011;38372;52.902;6.024;2023-05-01T03:26:23;2.13;;;0.85;;
52458;SDS011;38372;52.902;6.024;2023-05-01T03:28:50;2.40;;;0.93;;
52458;SDS011;38372;52.902;6.024;2023-05-01T03:31:15;4.97;;;1.92;;
52458;SDS011;38372;52.902;6.024;2023-05-01T03:33:41;2.28;;;0.88;;
52458;SDS011;38372;52.902;6.024;2023-05-01T03:36:07;1.50;;;0.80;;
52458;SDS011;38372;52.902;6.024;2023-05-01T03:38:35;2.10;;;0.90;;
52458;SDS011;38372;52.902;6.024;2023-05-01T03:41:01;5.80;;;1.55;;
52458;SDS011;38372;52.902;6.024;2023-05-01T03:43:29;1.45;;;0.90;;
52458;SDS011;38372;52.902;6.024;2023-05-01T03:45:56;1.65;;;0.63;;
52458;SDS011;38372;52.902;6.024;2023-05-01T03:48:22;0.88;;;0.80;;
52458;SDS011;38372;52.902;6.024;2023-05-01T03:50:49;2.67;;;1.00;;
52458;SDS011;38372;52.902;6.024;2023-05-01T03:53:15;2.03;;;0.85;;
52458;SDS011;38372;52.902;6.024;2023-05-01T03:55:41;2.70;;;0.85;;
52458;SDS011;38372;52.902;6.024;2023-05-01T03:58:07;3.72;;;1.10;;
52458;SDS011;38372;52.902;6.024;2023-05-01T04:00:34;1.20;;;0.73;;
52458;SDS011;38372;52.902;6.024;2023-05-01T04:03:01;2.00;;;0.75;;
52458;SDS011;38372;52.902;6.024;2023-05-01T04:05:28;1.50;;;0.90;;
52458;SDS011;38372;52.902;6.024;2023-05-01T04:07:54;0.85;;;0.70;;
52458;SDS011;38372;52.902;6.024;2023-05-01T04:10:20;4.40;;;1.40;;
52458;SDS011;38372;52.902;6.024;2023-05-01T04:12:46;0.93;;;0.55;;
52458;SDS011;38372;52.902;6.024;2023-05-01T04:15:12;2.47;;;1.00;;
52458;SDS011;38372;52.902;6.024;2023-05-01T04:17:38;3.22;;;0.90;;
52458;SDS011;38372;52.902;6.024;2023-05-01T04:20:08;2.73;;;0.90;;
52458;SDS011;38372;52.902;6.024;2023-05-01T04:22:35;1.58;;;0.90;;
52458;SDS011;38372;52.902;6.024;2023-05-01T04:25:01;1.77;;;1.02;;
52458;SDS011;38372;52.902;6.024;2023-05-01T04:27:27;1.15;;;0.73;;
52458;SDS011;38372;52.902;6.024;2023-05-01T04:29:53;1.38;;;0.70;;
52458;SDS011;38372;52.902;6.024;2023-05-01T04:32:19;1.08;;;0.65;;
52458;SDS011;38372;52.902;6.024;2023-05-01T04:34:45;1.27;;;0.73;;
52458;SDS011;38372;52.902;6.024;2023-05-01T04:37:11;1.15;;;0.65;;
52458;SDS011;38372;52.902;6.024;2023-05-01T04:39:38;3.45;;;0.85;;
52458;SDS011;38372;52.902;6.024;2023-05-01T04:42:04;2.42;;;1.00;;
52458;SDS011;38372;52.902;6.024;2023-05-01T04:44:30;5.18;;;1.23;;
52458;SDS011;38372;52.902;6.024;2023-05-01T04:46:59;2.17;;;0.82;;
52458;SDS011;38372;52.902;6.024;2023-05-01T04:49:27;1.58;;;0.60;;
52458;SDS011;38372;52.902;6.024;2023-05-01T04:51:52;3.00;;;1.00;;
52458;SDS011;38372;52.902;6.024;2023-05-01T04:54:18;1.75;;;0.65;;
52458;SDS011;38372;52.902;6.024;2023-05-01T04:56:44;1.17;;;0.52;;
52458;SDS011;38372;52.902;6.024;2023-05-01T04:59:10;1.73;;;0.80;;
52458;SDS011;38372;52.902;6.024;2023-05-01T05:01:35;1.13;;;0.45;;
52458;SDS011;38372;52.902;6.024;2023-05-01T05:04:01;1.48;;;0.93;;
52458;SDS011;38372;52.902;6.024;2023-05-01T05:06:27;1.85;;;0.80;;
52458;SDS011;38372;52.902;6.024;2023-05-01T05:08:53;1.67;;;0.80;;
52458;SDS011;38372;52.902;6.024;2023-05-01T05:11:20;2.53;;;1.05;;
52458;SDS011;38372;52.902;6.024;2023-05-01T05:13:45;2.05;;;0.98;;
52458;SDS011;38372;52.902;6.024;2023-05-01T05:16:11;3.78;;;0.93;;
52458;SDS011;38372;52.902;6.024;2023-05-01T05:18:37;1.90;;;1.13;;
52458;SDS011;38372;52.902;6.024;2023-05-01T05:21:04;0.85;;;0.50;;
52458;SDS011;38372;52.902;6.024;2023-05-01T05:23:30;4.28;;;1.15;;
52458;SDS011;38372;52.902;6.024;2023-05-01T05:25:56;1.75;;;0.77;;
52458;SDS011;38372;52.902;6.024;2023-05-01T05:28:25;2.03;;;1.05;;
52458;SDS011;38372;52.902;6.024;2023-05-01T05:30:55;1.52;;;0.55;;
52458;SDS011;38372;52.902;6.024;2023-05-01T05:33:21;1.27;;;0.70;;
52458;SDS011;38372;52.902;6.024;2023-05-01T05:35:49;1.98;;;0.85;;
52458;SDS011;38372;52.902;6.024;2023-05-01T05:38:15;1.25;;;0.70;;
52458;SDS011;38372;52.902;6.024;2023-05-01T05:40:41;2.10;;;1.17;;
52458;SDS011;38372;52.902;6.024;2023-05-01T05:43:07;2.25;;;1.02;;
52458;SDS011;38372;52.902;6.024;2023-05-01T05:45:34;0.77;;;0.60;;
52458;SDS011;38372;52.902;6.024;2023-05-01T05:48:00;3.58;;;1.27;;
52458;SDS011;38372;52.902;6.024;2023-05-01T05:50:26;2.35;;;1.10;;
52458;SDS011;38372;52.902;6.024;2023-05-01T05:52:52;3.30;;;1.00;;
52458;SDS011;38372;52.902;6.024;2023-05-01T05:55:18;2.63;;;1.23;;
52458;SDS011;38372;52.902;6.024;2023-05-01T05:57:43;2.00;;;0.90;;
52458;SDS011;38372;52.902;6.024;2023-05-01T06:00:09;3.03;;;1.42;;
52458;SDS011;38372;52.902;6.024;2023-05-01T06:02:35;2.95;;;1.27;;
52458;SDS011;38372;52.902;6.024;2023-05-01T06:05:02;3.60;;;0.68;;
52458;SDS011;38372;52.902;6.024;2023-05-01T06:07:28;4.50;;;1.42;;
52458;SDS011;38372;52.902;6.024;2023-05-01T06:09:54;2.00;;;0.85;;
52458;SDS011;38372;52.902;6.024;2023-05-01T06:12:25;1.45;;;0.75;;
52458;SDS011;38372;52.902;6.024;2023-05-01T06:14:51;1.38;;;0.73;;
52458;SDS011;38372;52.902;6.024;2023-05-01T06:17:17;2.28;;;1.20;;
52458;SDS011;38372;52.902;6.024;2023-05-01T06:19:43;6.65;;;1.25;;
52458;SDS011;38372;52.902;6.024;2023-05-01T06:22:09;2.10;;;1.02;;
52458;SDS011;38372;52.902;6.024;2023-05-01T06:24:35;2.80;;;0.98;;
52458;SDS011;38372;52.902;6.024;2023-05-01T06:27:03;5.70;;;1.38;;
52458;SDS011;38372;52.902;6.024;2023-05-01T06:29:41;3.13;;;1.15;;
52458;SDS011;38372;52.902;6.024;2023-05-01T06:32:07;2.75;;;1.27;;
52458;SDS011;38372;52.902;6.024;2023-05-01T06:34:32;1.25;;;0.75;;
52458;SDS011;38372;52.902;6.024;2023-05-01T06:36:58;1.52;;;1.08;;
52458;SDS011;38372;52.902;6.024;2023-05-01T06:39:24;2.42;;;1.33;;
52458;SDS011;38372;52.902;6.024;2023-05-01T06:41:50;2.05;;;1.05;;
52458;SDS011;38372;52.902;6.024;2023-05-01T06:44:16;2.42;;;0.70;;
52458;SDS011;38372;52.902;6.024;2023-05-01T06:46:41;2.53;;;1.13;;
52458;SDS011;38372;52.902;6.024;2023-05-01T06:49:07;3.33;;;1.20;;
52458;SDS011;38372;52.902;6.024;2023-05-01T06:51:33;1.40;;;0.85;;
52458;SDS011;38372;52.902;6.024;2023-05-01T06:53:58;1.65;;;1.05;;
52458;SDS011;38372;52.902;6.024;2023-05-01T06:56:24;2.83;;;1.38;;
52458;SDS011;38372;52.902;6.024;2023-05-01T06:58:50;3.33;;;1.40;;
52458;SDS011;38372;52.902;6.024;2023-05-01T07:01:16;4.18;;;1.10;;
52458;SDS011;38372;52.902;6.024;2023-05-01T07:03:42;2.60;;;1.50;;
52458;SDS011;38372;52.902;6.024;2023-05-01T07:06:07;1.30;;;0.70;;
52458;SDS011;38372;52.902;6.024;2023-05-01T07:08:33;2.30;;;1.02;;
52458;SDS011;38372;52.902;6.024;2023-05-01T07:10:59;3.97;;;1.60;;
52458;SDS011;38372;52.902;6.024;2023-05-01T07:13:25;2.17;;;1.20;;
52458;SDS011;38372;52.902;6.024;2023-05-01T07:15:51;1.40;;;0.88;;
52458;SDS011;38372;52.902;6.024;2023-05-01T07:18:17;1.85;;;0.90;;
52458;SDS011;38372;52.902;6.024;2023-05-01T07:20:43;3.28;;;1.10;;
52458;SDS011;38372;52.902;6.024;2023-05-01T07:23:09;13.45;;;1.38;;
52458;SDS011;38372;52.902;6.024;2023-05-01T07:25:35;1.95;;;1.20;;
52458;SDS011;38372;52.902;6.024;2023-05-01T07:28:08;3.03;;;1.08;;
52458;SDS011;38372;52.902;6.024;2023-05-01T07:30:37;2.47;;;1.27;;
52458;SDS011;38372;52.902;6.024;2023-05-01T07:35:31;4.43;;;0.60;;
52458;SDS011;38372;52.902;6.024;2023-05-01T07:37:57;1.73;;;0.90;;
52458;SDS011;38372;52.902;6.024;2023-05-01T07:40:23;2.33;;;0.90;;
52458;SDS011;38372;52.902;6.024;2023-05-01T07:42:49;2.42;;;0.95;;
52458;SDS011;38372;52.902;6.024;2023-05-01T07:45:14;1.42;;;0.85;;
52458;SDS011;38372;52.902;6.024;2023-05-01T07:47:40;1.52;;;0.90;;
52458;SDS011;38372;52.902;6.024;2023-05-01T07:50:10;2.22;;;1.02;;
52458;SDS011;38372;52.902;6.024;2023-05-01T07:52:37;2.65;;;1.30;;
52458;SDS011;38372;52.902;6.024;2023-05-01T07:55:03;2.20;;;0.90;;
52458;SDS011;38372;52.902;6.024;2023-05-01T07:57:30;2.10;;;1.10;;
52458;SDS011;38372;52.902;6.024;2023-05-01T07:59:58;2.10;;;1.00;;
52458;SDS011;38372;52.902;6.024;2023-05-01T08:02:24;2.35;;;1.50;;
52458;SDS011;38372;52.902;6.024;2023-05-01T08:04:50;1.80;;;1.15;;
52458;SDS011;38372;52.902;6.024;2023-05-01T08:07:16;1.48;;;0.95;;
52458;SDS011;38372;52.902;6.024;2023-05-01T08:09:42;2.92;;;1.08;;
52458;SDS011;38372;52.902;6.024;2023-05-01T08:12:07;2.05;;;0.80;;
52458;SDS011;38372;52.902;6.024;2023-05-01T08:14:33;2.92;;;1.20;;
52458;SDS011;38372;52.902;6.024;2023-05-01T08:16:59;2.63;;;1.23;;
52458;SDS011;38372;52.902;6.024;2023-05-01T08:19:25;3.45;;;1.38;;
52458;SDS011;38372;52.902;6.024;2023-05-01T08:21:52;2.47;;;1.10;;
52458;SDS011;38372;52.902;6.024;2023-05-01T08:24:18;1.88;;;1.13;;
52458;SDS011;38372;52.902;6.024;2023-05-01T08:26:43;2.00;;;1.02;;
52458;SDS011;38372;52.902;6.024;2023-05-01T08:29:09;2.50;;;0.93;;
52458;SDS011;38372;52.902;6.024;2023-05-01T08:31:35;1.65;;;1.00;;
52458;SDS011;38372;52.902;6.024;2023-05-01T08:34:03;1.92;;;0.90;;
52458;SDS011;38372;52.902;6.024;2023-05-01T08:36:30;2.15;;;1.13;;
52458;SDS011;38372;52.902;6.024;2023-05-01T08:38:58;0.98;;;0.55;;
52458;SDS011;38372;52.902;6.024;2023-05-01T08:41:24;2.35;;;1.13;;
52458;SDS011;38372;52.902;6.024;2023-05-01T08:43:52;1.25;;;0.68;;
52458;SDS011;38372;52.902;6.024;2023-05-01T08:46:28;1.92;;;0.85;;
52458;SDS011;38372;52.902;6.024;2023-05-01T08:49:05;2.25;;;0.88;;
52458;SDS011;38372;52.902;6.024;2023-05-01T08:51:33;2.83;;;1.13;;
52458;SDS011;38372;52.902;6.024;2023-05-01T08:54:00;1.30;;;0.82;;
52458;SDS011;38372;52.902;6.024;2023-05-01T08:56:35;2.67;;;1.20;;
52458;SDS011;38372;52.902;6.024;2023-05-01T08:59:03;1.48;;;0.90;;
52458;SDS011;38372;52.902;6.024;2023-05-01T09:01:34;1.30;;;0.75;;
52458;SDS011;38372;52.902;6.024;2023-05-01T09:04:05;3.72;;;1.10;;
52458;SDS011;38372;52.902;6.024;2023-05-01T09:06:36;2.47;;;1.17;;
52458;SDS011;38372;52.902;6.024;2023-05-01T09:09:02;2.15;;;0.70;;
52458;SDS011;38372;52.902;6.024;2023-05-01T09:11:28;1.92;;;0.82;;
52458;SDS011;38372;52.902;6.024;2023-05-01T09:13:55;2.60;;;0.63;;
52458;SDS011;38372;52.902;6.024;2023-05-01T09:16:22;1.02;;;0.57;;
52458;SDS011;38372;52.902;6.024;2023-05-01T09:18:48;2.03;;;0.82;;
52458;SDS011;38372;52.902;6.024;2023-05-01T09:21:18;1.70;;;0.80;;
52458;SDS011;38372;52.902;6.024;2023-05-01T09:23:44;3.50;;;0.88;;
52458;SDS011;38372;52.902;6.024;2023-05-01T09:26:14;1.42;;;0.68;;
52458;SDS011;38372;52.902;6.024;2023-05-01T09:28:44;1.30;;;0.50;;
52458;SDS011;38372;52.902;6.024;2023-05-01T09:33:54;1.70;;;0.60;;
52458;SDS011;38372;52.902;6.024;2023-05-01T09:36:23;1.30;;;0.68;;
52458;SDS011;38372;52.902;6.024;2023-05-01T09:38:50;1.38;;;0.65;;
52458;SDS011;38372;52.902;6.024;2023-05-01T09:41:18;1.92;;;0.80;;
52458;SDS011;38372;52.902;6.024;2023-05-01T09:43:57;1.77;;;0.80;;
52458;SDS011;38372;52.902;6.024;2023-05-01T09:46:24;1.80;;;0.60;;
52458;SDS011;38372;52.902;6.024;2023-05-01T09:48:51;2.85;;;0.95;;
52458;SDS011;38372;52.902;6.024;2023-05-01T09:51:26;2.88;;;1.30;;
52458;SDS011;38372;52.902;6.024;2023-05-01T09:53:55;2.38;;;0.70;;
52458;SDS011;38372;52.902;6.024;2023-05-01T09:56:27;1.60;;;0.80;;
52458;SDS011;38372;52.902;6.024;2023-05-01T09:58:56;1.20;;;0.80;;
52458;SDS011;38372;52.902;6.024;2023-05-01T10:01:37;2.20;;;0.80;;
52458;SDS011;38372;52.902;6.024;2023-05-01T10:04:04;2.33;;;0.88;;
52458;SDS011;38372;52.902;6.024;2023-05-01T10:06:31;1.65;;;0.68;;
52458;SDS011;38372;52.902;6.024;2023-05-01T10:08:57;1.45;;;0.60;;
52458;SDS011;38372;52.902;6.024;2023-05-01T10:11:25;2.45;;;0.82;;
52458;SDS011;38372;52.902;6.024;2023-05-01T10:14:04;2.63;;;0.98;;
52458;SDS011;38372;52.902;6.024;2023-05-01T10:16:32;1.27;;;0.70;;
52458;SDS011;38372;52.902;6.024;2023-05-01T10:18:59;2.00;;;1.10;;
52458;SDS011;38372;52.902;6.024;2023-05-01T10:21:25;2.03;;;0.93;;
52458;SDS011;38372;52.902;6.024;2023-05-01T10:23:52;4.65;;;1.30;;
52458;SDS011;38372;52.902;6.024;2023-05-01T10:26:19;1.90;;;0.90;;
52458;SDS011;38372;52.902;6.024;2023-05-01T10:28:45;0.90;;;0.52;;
52458;SDS011;38372;52.902;6.024;2023-05-01T10:31:13;2.42;;;1.05;;
52458;SDS011;38372;52.902;6.024;2023-05-01T10:33:41;1.60;;;0.80;;
52458;SDS011;38372;52.902;6.024;2023-05-01T10:36:10;2.78;;;1.23;;
52458;SDS011;38372;52.902;6.024;2023-05-01T10:38:42;2.58;;;0.98;;
52458;SDS011;38372;52.902;6.024;2023-05-01T10:41:12;2.22;;;0.85;;
52458;SDS011;38372;52.902;6.024;2023-05-01T10:43:39;1.75;;;1.13;;
52458;SDS011;38372;52.902;6.024;2023-05-01T10:53:33;1.52;;;0.40;;
52458;SDS011;38372;52.902;6.024;2023-05-01T10:55:59;2.75;;;0.40;;
52458;SDS011;38372;52.902;6.024;2023-05-01T11:03:52;0.65;;;0.40;;
52458;SDS011;38372;52.902;6.024;2023-05-01T11:06:18;0.93;;;0.38;;
52458;SDS011;38372;52.902;6.024;2023-05-01T11:08:44;0.73;;;0.40;;
52458;SDS011;38372;52.902;6.024;2023-05-01T11:14:02;1.23;;;0.52;;
52458;SDS011;38372;52.902;6.024;2023-05-01T11:21:45;0.70;;;0.30;;
52458;SDS011;38372;52.902;6.024;2023-05-01T11:24:12;0.93;;;0.35;;
52458;SDS011;38372;52.902;6.024;2023-05-01T11:26:39;0.60;;;0.30;;
52458;SDS011;38372;52.902;6.024;2023-05-01T11:29:06;2.15;;;0.50;;
52458;SDS011;38372;52.902;6.024;2023-05-01T11:31:34;1.00;;;0.40;;
52458;SDS011;38372;52.902;6.024;2023-05-01T11:34:00;0.75;;;0.30;;
52458;SDS011;38372;52.902;6.024;2023-05-01T11:36:27;0.88;;;0.38;;
52458;SDS011;38372;52.902;6.024;2023-05-01T11:38:58;0.65;;;0.45;;
52458;SDS011;38372;52.902;6.024;2023-05-01T11:41:27;4.18;;;0.50;;
52458;SDS011;38372;52.902;6.024;2023-05-01T11:43:53;0.40;;;0.30;;
52458;SDS011;38372;52.902;6.024;2023-05-01T11:48:53;1.98;;;0.43;;
52458;SDS011;38372;52.902;6.024;2023-05-01T11:51:21;1.23;;;0.20;;
52458;SDS011;38372;52.902;6.024;2023-05-01T11:54:07;0.40;;;0.30;;
52458;SDS011;38372;52.902;6.024;2023-05-01T11:56:35;2.63;;;0.47;;
52458;SDS011;38372;52.902;6.024;2023-05-01T11:59:11;0.85;;;0.30;;
52458;SDS011;38372;52.902;6.024;2023-05-01T12:01:45;0.47;;;0.20;;
52458;SDS011;38372;52.902;6.024;2023-05-01T12:04:11;0.70;;;0.45;;
52458;SDS011;38372;52.902;6.024;2023-05-01T12:06:47;2.30;;;0.32;;
52458;SDS011;38372;52.902;6.024;2023-05-01T12:09:17;0.30;;;0.22;;
52458;SDS011;38372;52.902;6.024;2023-05-01T12:11:44;0.38;;;0.20;;
52458;SDS011;38372;52.902;6.024;2023-05-01T12:14:12;0.40;;;0.25;;
52458;SDS011;38372;52.902;6.024;2023-05-01T12:16:39;0.55;;;0.35;;
52458;SDS011;38372;52.902;6.024;2023-05-01T12:19:06;0.90;;;0.40;;
52458;SDS011;38372;52.902;6.024;2023-05-01T12:21:33;0.73;;;0.40;;
52458;SDS011;38372;52.902;6.024;2023-05-01T12:24:12;1.45;;;0.60;;
52458;SDS011;38372;52.902;6.024;2023-05-01T12:26:40;0.95;;;0.55;;
52458;SDS011;38372;52.902;6.024;2023-05-01T12:29:07;1.00;;;0.57;;
52458;SDS011;38372;52.902;6.024;2023-05-01T12:31:34;2.45;;;0.55;;
52458;SDS011;38372;52.902;6.024;2023-05-01T12:34:02;1.10;;;0.55;;
52458;SDS011;38372;52.902;6.024;2023-05-01T12:36:29;1.30;;;0.68;;
52458;SDS011;38372;52.902;6.024;2023-05-01T12:39:00;2.95;;;0.60;;
52458;SDS011;38372;52.902;6.024;2023-05-01T12:41:33;1.88;;;0.85;;
52458;SDS011;38372;52.902;6.024;2023-05-01T12:44:23;1.35;;;0.60;;
52458;SDS011;38372;52.902;6.024;2023-05-01T12:46:59;1.30;;;0.73;;
52458;SDS011;38372;52.902;6.024;2023-05-01T12:49:27;2.55;;;0.85;;
52458;SDS011;38372;52.902;6.024;2023-05-01T12:51:54;1.38;;;0.60;;
52458;SDS011;38372;52.902;6.024;2023-05-01T12:54:22;1.77;;;0.63;;
52458;SDS011;38372;52.902;6.024;2023-05-01T12:59:36;1.30;;;0.70;;
52458;SDS011;38372;52.902;6.024;2023-05-01T13:02:05;2.45;;;0.85;;
52458;SDS011;38372;52.902;6.024;2023-05-01T13:04:36;0.77;;;0.40;;
52458;SDS011;38372;52.902;6.024;2023-05-01T13:07:15;1.58;;;0.75;;
52458;SDS011;38372;52.902;6.024;2023-05-01T13:10:15;2.08;;;0.90;;
52458;SDS011;38372;52.902;6.024;2023-05-01T13:12:35;2.85;;;1.20;;
52458;SDS011;38372;52.902;6.024;2023-05-01T13:15:18;3.65;;;1.35;;
52458;SDS011;38372;52.902;6.024;2023-05-01T13:17:45;2.28;;;1.20;;
52458;SDS011;38372;52.902;6.024;2023-05-01T13:20:11;3.80;;;1.00;;
52458;SDS011;38372;52.902;6.024;2023-05-01T13:22:37;3.55;;;1.23;;
52458;SDS011;38372;52.902;6.024;2023-05-01T13:25:04;4.28;;;0.98;;
52458;SDS011;38372;52.902;6.024;2023-05-01T13:27:40;2.72;;;1.42;;
52458;SDS011;38372;52.902;6.024;2023-05-01T13:30:06;1.58;;;0.93;;
52458;SDS011;38372;52.902;6.024;2023-05-01T13:32:33;2.58;;;1.30;;
52458;SDS011;38372;52.902;6.024;2023-05-01T13:35:06;2.28;;;1.40;;
52458;SDS011;38372;52.902;6.024;2023-05-01T13:37:34;4.15;;;1.23;;
52458;SDS011;38372;52.902;6.024;2023-05-01T13:40:00;1.92;;;0.98;;
52458;SDS011;38372;52.902;6.024;2023-05-01T13:42:27;3.55;;;1.52;;
52458;SDS011;38372;52.902;6.024;2023-05-01T13:44:53;2.25;;;1.30;;
52458;SDS011;38372;52.902;6.024;2023-05-01T13:47:21;2.67;;;1.00;;
52458;SDS011;38372;52.902;6.024;2023-05-01T13:49:49;2.40;;;1.15;;
52458;SDS011;38372;52.902;6.024;2023-05-01T13:52:16;1.67;;;0.85;;
52458;SDS011;38372;52.902;6.024;2023-05-01T13:54:43;2.03;;;1.13;;
52458;SDS011;38372;52.902;6.024;2023-05-01T13:57:10;6.72;;;1.33;;
52458;SDS011;38372;52.902;6.024;2023-05-01T13:59:40;4.03;;;1.80;;
52458;SDS011;38372;52.902;6.024;2023-05-01T14:04:46;2.47;;;1.30;;
52458;SDS011;38372;52.902;6.024;2023-05-01T14:07:19;3.20;;;1.50;;
52458;SDS011;38372;52.902;6.024;2023-05-01T14:09:56;2.50;;;1.20;;
52458;SDS011;38372;52.902;6.024;2023-05-01T14:12:32;1.58;;;0.70;;
52458;SDS011;38372;52.902;6.024;2023-05-01T14:14:59;3.15;;;0.80;;
52458;SDS011;38372;52.902;6.024;2023-05-01T14:17:29;2.00;;;1.20;;
52458;SDS011;38372;52.902;6.024;2023-05-01T14:19:57;4.00;;;1.30;;
52458;SDS011;38372;52.902;6.024;2023-05-01T14:22:33;1.90;;;0.98;;
52458;SDS011;38372;52.902;6.024;2023-05-01T14:25:07;4.00;;;1.40;;
52458;SDS011;38372;52.902;6.024;2023-05-01T14:30:24;5.10;;;1.30;;
52458;SDS011;38372;52.902;6.024;2023-05-01T14:32:52;3.38;;;1.33;;
52458;SDS011;38372;52.902;6.024;2023-05-01T14:35:22;3.13;;;1.40;;
52458;SDS011;38372;52.902;6.024;2023-05-01T14:37:49;2.95;;;1.67;;
52458;SDS011;38372;52.902;6.024;2023-05-01T14:40:16;4.25;;;1.38;;
52458;SDS011;38372;52.902;6.024;2023-05-01T14:42:50;3.30;;;1.58;;
52458;SDS011;38372;52.902;6.024;2023-05-01T14:45:17;4.28;;;1.92;;
52458;SDS011;38372;52.902;6.024;2023-05-01T14:47:44;4.07;;;1.40;;
52458;SDS011;38372;52.902;6.024;2023-05-01T14:50:12;3.67;;;1.33;;
52458;SDS011;38372;52.902;6.024;2023-05-01T14:52:51;3.90;;;1.52;;
52458;SDS011;38372;52.902;6.024;2023-05-01T14:55:27;3.15;;;1.38;;
52458;SDS011;38372;52.902;6.024;2023-05-01T14:57:55;2.30;;;1.10;;
52458;SDS011;38372;52.902;6.024;2023-05-01T15:00:22;3.05;;;1.77;;
52458;SDS011;38372;52.902;6.024;2023-05-01T15:02:48;3.10;;;1.65;;
52458;SDS011;38372;52.902;6.024;2023-05-01T15:05:15;1.85;;;0.80;;
52458;SDS011;38372;52.902;6.024;2023-05-01T15:07:42;2.80;;;1.02;;
52458;SDS011;38372;52.902;6.024;2023-05-01T15:10:08;2.85;;;1.38;;
52458;SDS011;38372;52.902;6.024;2023-05-01T15:12:35;4.15;;;1.38;;
52458;SDS011;38372;52.902;6.024;2023-05-01T15:15:01;4.70;;;1.67;;
52458;SDS011;38372;52.902;6.024;2023-05-01T15:17:27;2.42;;;1.17;;
52458;SDS011;38372;52.902;6.024;2023-05-01T15:19:53;2.78;;;1.27;;
52458;SDS011;38372;52.902;6.024;2023-05-01T15:22:19;2.00;;;1.13;;
52458;SDS011;38372;52.902;6.024;2023-05-01T15:24:45;3.00;;;1.10;;
52458;SDS011;38372;52.902;6.024;2023-05-01T15:27:10;4.45;;;1.35;;
52458;SDS011;38372;52.902;6.024;2023-05-01T15:29:37;4.85;;;1.45;;
52458;SDS011;38372;52.902;6.024;2023-05-01T15:32:03;3.90;;;1.92;;
52458;SDS011;38372;52.902;6.024;2023-05-01T15:34:30;3.67;;;1.52;;
52458;SDS011;38372;52.902;6.024;2023-05-01T15:36:55;2.95;;;1.48;;
52458;SDS011;38372;52.902;6.024;2023-05-01T15:39:21;3.45;;;1.77;;
52458;SDS011;38372;52.902;6.024;2023-05-01T15:41:47;2.90;;;1.35;;
52458;SDS011;38372;52.902;6.024;2023-05-01T15:44:13;3.65;;;1.83;;
52458;SDS011;38372;52.902;6.024;2023-05-01T15:46:39;3.97;;;1.50;;
52458;SDS011;38372;52.902;6.024;2023-05-01T15:49:06;5.63;;;2.05;;
52458;SDS011;38372;52.902;6.024;2023-05-01T15:51:39;4.60;;;2.33;;
52458;SDS011;38372;52.902;6.024;2023-05-01T15:54:47;3.90;;;1.92;;
52458;SDS011;38372;52.902;6.024;2023-05-01T15:57:13;3.63;;;2.30;;